createdAt,value
2023-04-24T00:02:27.688Z,19.4
2023-04-24T00:08:20.893Z,19.3
2023-04-24T00:14:13.019Z,19.4
2023-04-24T00:20:04.101Z,19.4
2023-04-24T00:25:55.730Z,19.4
2023-04-24T00:31:46.412Z,19.4
2023-04-24T00:37:37.956Z,19.4
2023-04-24T00:43:29.183Z,19.4
2023-04-24T00:49:20.232Z,19.4
2023-04-24T00:55:11.205Z,19.4
2023-04-24T01:00:47.204Z,19.4
2023-04-24T01:06:40.606Z,19.4
2023-04-24T01:12:32.023Z,19.4
2023-04-24T01:18:23.943Z,19.4
2023-04-24T01:24:16.131Z,19.4
2023-04-24T01:30:07.374Z,19.4
2023-04-24T01:35:59.439Z,19.4
2023-04-24T01:41:35.711Z,19.4
2023-04-24T01:47:26.936Z,19.4
2023-04-24T01:53:19.013Z,19.4
2023-04-24T01:59:10.365Z,19.4
2023-04-24T02:05:04.042Z,19.4
2023-04-24T02:10:55.875Z,19.4
2023-04-24T02:16:47.468Z,19.4
2023-04-24T02:22:38.351Z,19.4
2023-04-24T02:28:14.102Z,19.4
2023-04-24T02:34:05.652Z,19.4
2023-04-24T02:39:57.053Z,19.5
2023-04-24T02:45:48.257Z,19.6
2023-04-24T02:51:40.420Z,19.6
2023-04-24T02:57:31.533Z,19.6
2023-04-24T03:03:24.108Z,19.5
2023-04-24T03:09:17.073Z,19.5
2023-04-24T03:15:08.442Z,19.5
2023-04-24T03:21:03.431Z,19.4
2023-04-24T03:26:55.140Z,19.4
2023-04-24T03:32:47.233Z,19.5
2023-04-24T03:38:38.996Z,19.4
2023-04-24T03:44:17.645Z,19.4
2023-04-24T03:50:10.336Z,19.4
2023-04-24T03:56:02.370Z,19.4
2023-04-24T04:01:53.657Z,19.4
2023-04-24T04:07:47.653Z,19.4
2023-04-24T04:13:38.730Z,19.4
2023-04-24T04:19:30.637Z,19.4
2023-04-24T04:25:21.992Z,19.4
2023-04-24T04:31:13.464Z,19.4
2023-04-24T04:37:05.583Z,19.4
2023-04-24T04:42:57.433Z,19.4
2023-04-24T04:48:49.145Z,19.4
2023-04-24T04:54:41.175Z,19.4
2023-04-24T05:00:35.622Z,19.4
2023-04-24T05:06:28.982Z,19.4
2023-04-24T05:12:27.162Z,19.4
2023-04-24T05:18:31.458Z,19.4
2023-04-24T05:24:22.383Z,19.4
2023-04-24T05:29:58.241Z,19.4
2023-04-24T05:35:34.961Z,19.4
2023-04-24T05:41:25.921Z,19.4
2023-04-24T05:47:17.960Z,19.4
2023-04-24T05:52:53.602Z,19.4
2023-04-24T05:58:45.570Z,19.4
2023-04-24T06:04:39.560Z,19.4
2023-04-24T06:10:17.332Z,19.4
2023-04-24T06:15:53.573Z,19.4
2023-04-24T06:21:45.768Z,18.4
2023-04-24T06:27:21.732Z,19.4
2023-04-24T06:33:21.186Z,19.3
2023-04-24T06:39:13.634Z,19.7
2023-04-24T06:44:50.017Z,20.7
2023-04-24T06:50:27.345Z,21.6
2023-04-24T06:56:18.977Z,22.1
2023-04-24T07:02:12.270Z,23.1
2023-04-24T07:08:05.884Z,23.8
2023-04-24T07:13:58.042Z,24.3
2023-04-24T07:19:35.145Z,24.6
2023-04-24T07:25:13.015Z,25.8
2023-04-24T07:30:50.151Z,26.8
2023-04-24T07:36:42.169Z,27.9
2023-04-24T07:42:33.944Z,28.9
2023-04-24T07:48:26.503Z,29.8
2023-04-24T07:54:32.018Z,30.8
2023-04-24T08:00:26.259Z,31.7
2023-04-24T08:06:22.893Z,32.7
2023-04-24T08:12:01.003Z,33.6
2023-04-24T08:17:52.547Z,34.4
2023-04-24T08:23:45.079Z,35.4
2023-04-24T08:29:38.667Z,36.3
2023-04-24T08:35:15.846Z,37.1
2023-04-24T08:41:01.096Z,37.9
2023-04-24T08:46:57.456Z,38.9
2023-04-24T08:53:00.931Z,39.8
2023-04-24T08:58:52.409Z,40.6
2023-04-24T09:04:31.280Z,41.5
2023-04-24T09:10:23.571Z,42.3
2023-04-24T09:16:14.904Z,42.8
2023-04-24T09:21:51.472Z,43.1
2023-04-24T09:27:44.244Z,43.4
2023-04-24T09:33:21.003Z,44.4
2023-04-24T09:38:56.368Z,45.3
2023-04-24T09:44:48.173Z,45.9
2023-04-24T09:50:52.798Z,46.6
2023-04-24T09:56:45.458Z,47.3
2023-04-24T10:02:38.204Z,48
2023-04-24T10:08:31.053Z,48
2023-04-24T10:14:23.282Z,48.9
2023-04-24T10:20:15.608Z,49.6
2023-04-24T10:26:07.508Z,49.6
2023-04-24T10:31:59.013Z,49.9
2023-04-24T10:37:50.872Z,50.4
2023-04-24T10:43:43.025Z,50.5
2023-04-24T10:49:34.915Z,51.3
2023-04-24T10:55:26.779Z,51.1
2023-04-24T11:01:19.231Z,51.7
2023-04-24T11:06:57.468Z,50.7
2023-04-24T11:12:35.441Z,49.8
2023-04-24T11:18:13.155Z,49.1
